sensor_id;sensor_type;location;lat;lon;timestamp;P1;durP1;ratioP1;P2;durP2;ratioP2
7104;SDS011;3594;42.152;24.714;2023-04-03T00:01:09;1.90;;;1.70;;
7104;SDS011;3594;42.152;24.714;2023-04-03T00:03:35;2.27;;;1.83;;
7104;SDS011;3594;42.152;24.714;2023-04-03T00:06:01;7.20;;;2.13;;
7104;SDS011;3594;42.152;24.714;2023-04-03T00:08:27;2.10;;;1.80;;
7104;SDS011;3594;42.152;24.714;2023-04-03T00:10:55;6.97;;;2.20;;
7104;SDS011;3594;42.152;24.714;2023-04-03T00:13:21;2.05;;;1.70;;
7104;SDS011;3594;42.152;24.714;2023-04-03T00:15:47;2.30;;;1.90;;
7104;SDS011;3594;42.152;24.714;2023-04-03T00:18:12;1.70;;;1.60;;
7104;SDS011;3594;42.152;24.714;2023-04-03T00:20:37;1.97;;;1.73;;
7104;SDS011;3594;42.152;24.714;2023-04-03T00:23:03;2.50;;;1.77;;
7104;SDS011;3594;42.152;24.714;2023-04-03T00:25:28;2.30;;;1.87;;
7104;SDS011;3594;42.152;24.714;2023-04-03T00:27:54;2.20;;;1.97;;
7104;SDS011;3594;42.152;24.714;2023-04-03T00:30:20;3.57;;;1.80;;
7104;SDS011;3594;42.152;24.714;2023-04-03T00:32:50;2.30;;;2.10;;
7104;SDS011;3594;42.152;24.714;2023-04-03T00:35:16;1.90;;;1.70;;
7104;SDS011;3594;42.152;24.714;2023-04-03T00:37:43;1.93;;;1.73;;
7104;SDS011;3594;42.152;24.714;2023-04-03T00:40:09;1.90;;;1.70;;
7104;SDS011;3594;42.152;24.714;2023-04-03T00:42:37;1.77;;;1.60;;
7104;SDS011;3594;42.152;24.714;2023-04-03T00:47:29;2.27;;;1.80;;
7104;SDS011;3594;42.152;24.714;2023-04-03T00:49:56;1.97;;;1.80;;
7104;SDS011;3594;42.152;24.714;2023-04-03T00:52:23;1.83;;;1.73;;
7104;SDS011;3594;42.152;24.714;2023-04-03T00:54:54;2.80;;;1.73;;
7104;SDS011;3594;42.152;24.714;2023-04-03T00:57:24;2.37;;;2.00;;
7104;SDS011;3594;42.152;24.714;2023-04-03T00:59:51;1.90;;;1.70;;
7104;SDS011;3594;42.152;24.714;2023-04-03T01:02:20;1.93;;;1.60;;
7104;SDS011;3594;42.152;24.714;2023-04-03T01:04:46;2.50;;;2.00;;
7104;SDS011;3594;42.152;24.714;2023-04-03T01:09:41;1.63;;;1.53;;
7104;SDS011;3594;42.152;24.714;2023-04-03T01:14:42;2.33;;;1.70;;
7104;SDS011;3594;42.152;24.714;2023-04-03T01:23:23;2.13;;;1.70;;
7104;SDS011;3594;42.152;24.714;2023-04-03T01:25:41;1.53;;;1.40;;
7104;SDS011;3594;42.152;24.714;2023-04-03T01:28:09;2.20;;;1.87;;
7104;SDS011;3594;42.152;24.714;2023-04-03T01:33:08;2.10;;;1.90;;
7104;SDS011;3594;42.152;24.714;2023-04-03T01:35:34;5.27;;;1.83;;
7104;SDS011;3594;42.152;24.714;2023-04-03T01:37:59;2.13;;;1.73;;
7104;SDS011;3594;42.152;24.714;2023-04-03T01:40:25;2.40;;;1.90;;
7104;SDS011;3594;42.152;24.714;2023-04-03T01:42:51;2.80;;;1.80;;
7104;SDS011;3594;42.152;24.714;2023-04-03T01:45:16;1.80;;;1.70;;
7104;SDS011;3594;42.152;24.714;2023-04-03T01:47:42;2.23;;;1.80;;
7104;SDS011;3594;42.152;24.714;2023-04-03T01:50:07;4.37;;;2.07;;
7104;SDS011;3594;42.152;24.714;2023-04-03T01:52:33;3.53;;;2.00;;
7104;SDS011;3594;42.152;24.714;2023-04-03T01:54:59;2.53;;;1.70;;
7104;SDS011;3594;42.152;24.714;2023-04-03T01:57:24;2.43;;;1.80;;
7104;SDS011;3594;42.152;24.714;2023-04-03T01:59:50;3.77;;;2.00;;
7104;SDS011;3594;42.152;24.714;2023-04-03T02:02:16;2.17;;;1.70;;
7104;SDS011;3594;42.152;24.714;2023-04-03T02:04:41;2.00;;;1.80;;
7104;SDS011;3594;42.152;24.714;2023-04-03T02:07:07;2.03;;;1.70;;
7104;SDS011;3594;42.152;24.714;2023-04-03T02:09:32;3.30;;;2.00;;
7104;SDS011;3594;42.152;24.714;2023-04-03T02:11:58;2.20;;;2.00;;
7104;SDS011;3594;42.152;24.714;2023-04-03T02:14:24;1.87;;;1.77;;
7104;SDS011;3594;42.152;24.714;2023-04-03T02:16:49;7.93;;;2.00;;
7104;SDS011;3594;42.152;24.714;2023-04-03T02:19:15;2.77;;;1.77;;
7104;SDS011;3594;42.152;24.714;2023-04-03T02:21:41;2.00;;;1.80;;
7104;SDS011;3594;42.152;24.714;2023-04-03T02:24:06;2.10;;;1.90;;
7104;SDS011;3594;42.152;24.714;2023-04-03T02:26:32;5.13;;;2.23;;
7104;SDS011;3594;42.152;24.714;2023-04-03T02:28:57;4.50;;;2.00;;
7104;SDS011;3594;42.152;24.714;2023-04-03T02:31:23;4.77;;;1.77;;
7104;SDS011;3594;42.152;24.714;2023-04-03T02:33:49;2.57;;;1.97;;
7104;SDS011;3594;42.152;24.714;2023-04-03T02:36:15;2.40;;;1.97;;
7104;SDS011;3594;42.152;24.714;2023-04-03T02:38:40;2.90;;;1.80;;
7104;SDS011;3594;42.152;24.714;2023-04-03T02:41:09;2.80;;;2.13;;
7104;SDS011;3594;42.152;24.714;2023-04-03T02:43:36;2.23;;;1.80;;
7104;SDS011;3594;42.152;24.714;2023-04-03T02:46:02;2.63;;;2.00;;
7104;SDS011;3594;42.152;24.714;2023-04-03T02:48:28;2.57;;;1.90;;
7104;SDS011;3594;42.152;24.714;2023-04-03T02:50:53;2.30;;;2.10;;
7104;SDS011;3594;42.152;24.714;2023-04-03T02:53:19;5.50;;;2.47;;
7104;SDS011;3594;42.152;24.714;2023-04-03T02:55:45;2.27;;;2.00;;
7104;SDS011;3594;42.152;24.714;2023-04-03T02:58:10;4.27;;;2.20;;
7104;SDS011;3594;42.152;24.714;2023-04-03T03:00:36;2.83;;;2.20;;
7104;SDS011;3594;42.152;24.714;2023-04-03T03:03:02;2.87;;;1.90;;
7104;SDS011;3594;42.152;24.714;2023-04-03T03:05:28;2.17;;;1.90;;
7104;SDS011;3594;42.152;24.714;2023-04-03T03:07:53;3.33;;;2.47;;
7104;SDS011;3594;42.152;24.714;2023-04-03T03:10:19;4.30;;;1.90;;
7104;SDS011;3594;42.152;24.714;2023-04-03T03:12:45;2.47;;;2.27;;
7104;SDS011;3594;42.152;24.714;2023-04-03T03:15:11;2.43;;;2.10;;
7104;SDS011;3594;42.152;24.714;2023-04-03T03:17:36;2.80;;;1.80;;
7104;SDS011;3594;42.152;24.714;2023-04-03T03:20:05;6.50;;;2.13;;
7104;SDS011;3594;42.152;24.714;2023-04-03T03:22:31;2.90;;;2.17;;
7104;SDS011;3594;42.152;24.714;2023-04-03T03:24:57;4.73;;;2.40;;
7104;SDS011;3594;42.152;24.714;2023-04-03T03:27:23;3.70;;;2.10;;
7104;SDS011;3594;42.152;24.714;2023-04-03T03:29:49;2.73;;;2.23;;
7104;SDS011;3594;42.152;24.714;2023-04-03T03:32:14;2.60;;;2.23;;
7104;SDS011;3594;42.152;24.714;2023-04-03T03:34:40;2.50;;;2.17;;
7104;SDS011;3594;42.152;24.714;2023-04-03T03:37:05;2.93;;;1.90;;
7104;SDS011;3594;42.152;24.714;2023-04-03T03:39:30;2.27;;;2.07;;
7104;SDS011;3594;42.152;24.714;2023-04-03T03:41:56;3.20;;;2.30;;
7104;SDS011;3594;42.152;24.714;2023-04-03T03:44:21;2.47;;;1.87;;
7104;SDS011;3594;42.152;24.714;2023-04-03T03:46:47;2.40;;;2.07;;
7104;SDS011;3594;42.152;24.714;2023-04-03T03:49:12;2.73;;;2.10;;
7104;SDS011;3594;42.152;24.714;2023-04-03T03:51:38;2.53;;;1.93;;
7104;SDS011;3594;42.152;24.714;2023-04-03T03:54:05;5.33;;;2.63;;
7104;SDS011;3594;42.152;24.714;2023-04-03T03:56:31;2.60;;;2.30;;
7104;SDS011;3594;42.152;24.714;2023-04-03T03:58:56;3.47;;;2.43;;
7104;SDS011;3594;42.152;24.714;2023-04-03T04:01:24;3.67;;;2.20;;
7104;SDS011;3594;42.152;24.714;2023-04-03T04:03:50;5.10;;;2.40;;
7104;SDS011;3594;42.152;24.714;2023-04-03T04:06:16;2.80;;;2.43;;
7104;SDS011;3594;42.152;24.714;2023-04-03T04:08:41;3.37;;;2.70;;
7104;SDS011;3594;42.152;24.714;2023-04-03T04:11:07;3.03;;;2.33;;
7104;SDS011;3594;42.152;24.714;2023-04-03T04:13:33;3.60;;;2.60;;
7104;SDS011;3594;42.152;24.714;2023-04-03T04:15:58;3.00;;;2.47;;
7104;SDS011;3594;42.152;24.714;2023-04-03T04:18:24;6.10;;;2.50;;
7104;SDS011;3594;42.152;24.714;2023-04-03T04:20:50;2.90;;;2.33;;
7104;SDS011;3594;42.152;24.714;2023-04-03T04:23:16;3.23;;;2.47;;
7104;SDS011;3594;42.152;24.714;2023-04-03T04:25:44;6.03;;;2.50;;
7104;SDS011;3594;42.152;24.714;2023-04-03T04:28:10;6.47;;;3.00;;
7104;SDS011;3594;42.152;24.714;2023-04-03T04:30:36;4.27;;;3.10;;
7104;SDS011;3594;42.152;24.714;2023-04-03T04:33:01;5.90;;;3.10;;
7104;SDS011;3594;42.152;24.714;2023-04-03T04:35:27;5.13;;;2.70;;
7104;SDS011;3594;42.152;24.714;2023-04-03T04:37:52;3.43;;;2.93;;
7104;SDS011;3594;42.152;24.714;2023-04-03T04:40:17;3.63;;;2.63;;
7104;SDS011;3594;42.152;24.714;2023-04-03T04:42:43;4.10;;;2.73;;
7104;SDS011;3594;42.152;24.714;2023-04-03T04:45:08;5.37;;;3.53;;
7104;SDS011;3594;42.152;24.714;2023-04-03T04:47:34;4.73;;;3.10;;
7104;SDS011;3594;42.152;24.714;2023-04-03T04:50:00;5.43;;;3.13;;
7104;SDS011;3594;42.152;24.714;2023-04-03T04:52:25;5.13;;;3.33;;
7104;SDS011;3594;42.152;24.714;2023-04-03T04:54:51;5.40;;;3.50;;
7104;SDS011;3594;42.152;24.714;2023-04-03T04:57:16;8.93;;;4.07;;
7104;SDS011;3594;42.152;24.714;2023-04-03T04:59:42;5.33;;;3.57;;
7104;SDS011;3594;42.152;24.714;2023-04-03T05:02:07;4.40;;;3.10;;
7104;SDS011;3594;42.152;24.714;2023-04-03T05:04:32;7.13;;;3.90;;
7104;SDS011;3594;42.152;24.714;2023-04-03T05:06:58;7.00;;;3.40;;
7104;SDS011;3594;42.152;24.714;2023-04-03T05:09:24;4.23;;;3.13;;
7104;SDS011;3594;42.152;24.714;2023-04-03T05:11:50;3.47;;;3.17;;
7104;SDS011;3594;42.152;24.714;2023-04-03T05:14:15;5.90;;;3.70;;
7104;SDS011;3594;42.152;24.714;2023-04-03T05:16:41;11.30;;;3.57;;
7104;SDS011;3594;42.152;24.714;2023-04-03T05:19:06;5.43;;;4.10;;
7104;SDS011;3594;42.152;24.714;2023-04-03T05:21:32;8.80;;;4.60;;
7104;SDS011;3594;42.152;24.714;2023-04-03T05:23:58;10.73;;;5.23;;
7104;SDS011;3594;42.152;24.714;2023-04-03T05:26:27;12.07;;;6.17;;
7104;SDS011;3594;42.152;24.714;2023-04-03T05:28:53;13.63;;;7.23;;
7104;SDS011;3594;42.152;24.714;2023-04-03T05:31:18;15.47;;;7.27;;
7104;SDS011;3594;42.152;24.714;2023-04-03T05:33:44;13.10;;;7.30;;
7104;SDS011;3594;42.152;24.714;2023-04-03T05:36:11;11.70;;;6.23;;
7104;SDS011;3594;42.152;24.714;2023-04-03T05:38:37;15.80;;;6.13;;
7104;SDS011;3594;42.152;24.714;2023-04-03T05:41:03;8.90;;;4.22;;
7104;SDS011;3594;42.152;24.714;2023-04-03T05:43:28;6.90;;;4.45;;
7104;SDS011;3594;42.152;24.714;2023-04-03T05:45:54;8.93;;;3.78;;
7104;SDS011;3594;42.152;24.714;2023-04-03T05:48:19;5.30;;;3.63;;
7104;SDS011;3594;42.152;24.714;2023-04-03T05:50:45;4.68;;;3.47;;
7104;SDS011;3594;42.152;24.714;2023-04-03T05:53:14;4.00;;;3.00;;
7104;SDS011;3594;42.152;24.714;2023-04-03T05:55:44;9.85;;;3.30;;
7104;SDS011;3594;42.152;24.714;2023-04-03T05:58:10;5.05;;;3.15;;
7104;SDS011;3594;42.152;24.714;2023-04-03T06:00:35;6.78;;;3.67;;
7104;SDS011;3594;42.152;24.714;2023-04-03T06:03:01;4.70;;;3.33;;
7104;SDS011;3594;42.152;24.714;2023-04-03T06:05:26;5.30;;;3.20;;
7104;SDS011;3594;42.152;24.714;2023-04-03T06:07:51;5.15;;;2.92;;
7104;SDS011;3594;42.152;24.714;2023-04-03T06:10:17;5.63;;;3.00;;
7104;SDS011;3594;42.152;24.714;2023-04-03T06:12:43;12.32;;;2.88;;
7104;SDS011;3594;42.152;24.714;2023-04-03T06:15:09;7.60;;;3.38;;
7104;SDS011;3594;42.152;24.714;2023-04-03T06:17:35;4.72;;;2.80;;
7104;SDS011;3594;42.152;24.714;2023-04-03T06:20:02;6.25;;;3.53;;
7104;SDS011;3594;42.152;24.714;2023-04-03T06:22:28;4.60;;;3.50;;
7104;SDS011;3594;42.152;24.714;2023-04-03T06:24:55;3.88;;;3.03;;
7104;SDS011;3594;42.152;24.714;2023-04-03T06:27:21;6.15;;;3.10;;
7104;SDS011;3594;42.152;24.714;2023-04-03T06:29:47;4.38;;;2.75;;
7104;SDS011;3594;42.152;24.714;2023-04-03T06:32:14;4.60;;;2.72;;
7104;SDS011;3594;42.152;24.714;2023-04-03T06:34:40;4.38;;;2.60;;
7104;SDS011;3594;42.152;24.714;2023-04-03T06:37:06;4.05;;;3.10;;
7104;SDS011;3594;42.152;24.714;2023-04-03T06:39:35;3.90;;;3.13;;
7104;SDS011;3594;42.152;24.714;2023-04-03T06:42:01;5.20;;;2.88;;
7104;SDS011;3594;42.152;24.714;2023-04-03T06:44:26;4.47;;;2.97;;
7104;SDS011;3594;42.152;24.714;2023-04-03T06:46:51;3.03;;;2.70;;
7104;SDS011;3594;42.152;24.714;2023-04-03T06:49:19;6.22;;;2.72;;
7104;SDS011;3594;42.152;24.714;2023-04-03T06:51:44;5.35;;;2.92;;
7104;SDS011;3594;42.152;24.714;2023-04-03T06:54:10;3.97;;;2.90;;
7104;SDS011;3594;42.152;24.714;2023-04-03T06:56:35;6.07;;;2.92;;
7104;SDS011;3594;42.152;24.714;2023-04-03T06:59:01;5.10;;;3.28;;
7104;SDS011;3594;42.152;24.714;2023-04-03T07:01:28;3.95;;;2.70;;
7104;SDS011;3594;42.152;24.714;2023-04-03T07:03:55;4.70;;;2.80;;
7104;SDS011;3594;42.152;24.714;2023-04-03T07:06:21;4.82;;;2.90;;
7104;SDS011;3594;42.152;24.714;2023-04-03T07:08:47;3.78;;;2.78;;
7104;SDS011;3594;42.152;24.714;2023-04-03T07:11:14;8.38;;;3.58;;
7104;SDS011;3594;42.152;24.714;2023-04-03T07:13:40;3.65;;;2.70;;
7104;SDS011;3594;42.152;24.714;2023-04-03T07:16:06;3.92;;;2.75;;
7104;SDS011;3594;42.152;24.714;2023-04-03T07:18:32;3.50;;;2.70;;
7104;SDS011;3594;42.152;24.714;2023-04-03T07:20:58;5.55;;;2.95;;
7104;SDS011;3594;42.152;24.714;2023-04-03T07:23:23;2.58;;;2.20;;
7104;SDS011;3594;42.152;24.714;2023-04-03T07:25:50;3.50;;;2.70;;
7104;SDS011;3594;42.152;24.714;2023-04-03T07:28:16;3.92;;;2.90;;
7104;SDS011;3594;42.152;24.714;2023-04-03T07:30:48;3.78;;;2.90;;
7104;SDS011;3594;42.152;24.714;2023-04-03T07:33:16;7.35;;;2.75;;
7104;SDS011;3594;42.152;24.714;2023-04-03T07:35:43;3.25;;;2.28;;
7104;SDS011;3594;42.152;24.714;2023-04-03T07:38:09;5.85;;;2.67;;
7104;SDS011;3594;42.152;24.714;2023-04-03T07:40:35;2.85;;;2.35;;
7104;SDS011;3594;42.152;24.714;2023-04-03T07:43:01;4.35;;;2.53;;
7104;SDS011;3594;42.152;24.714;2023-04-03T07:45:27;5.68;;;3.10;;
7104;SDS011;3594;42.152;24.714;2023-04-03T07:47:53;4.18;;;2.47;;
7104;SDS011;3594;42.152;24.714;2023-04-03T07:50:18;6.32;;;3.00;;
7104;SDS011;3594;42.152;24.714;2023-04-03T07:52:44;3.45;;;2.63;;
7104;SDS011;3594;42.152;24.714;2023-04-03T07:55:10;3.92;;;2.83;;
7104;SDS011;3594;42.152;24.714;2023-04-03T07:57:36;4.72;;;2.97;;
7104;SDS011;3594;42.152;24.714;2023-04-03T08:00:03;6.13;;;2.80;;
7104;SDS011;3594;42.152;24.714;2023-04-03T08:02:29;3.10;;;2.42;;
7104;SDS011;3594;42.152;24.714;2023-04-03T08:04:56;8.23;;;2.28;;
7104;SDS011;3594;42.152;24.714;2023-04-03T08:07:22;3.42;;;2.30;;
7104;SDS011;3594;42.152;24.714;2023-04-03T08:09:48;3.38;;;2.35;;
7104;SDS011;3594;42.152;24.714;2023-04-03T08:12:14;2.75;;;2.30;;
7104;SDS011;3594;42.152;24.714;2023-04-03T08:14:40;3.40;;;2.38;;
7104;SDS011;3594;42.152;24.714;2023-04-03T08:17:05;3.13;;;2.15;;
7104;SDS011;3594;42.152;24.714;2023-04-03T08:19:34;3.17;;;2.35;;
7104;SDS011;3594;42.152;24.714;2023-04-03T08:22:00;4.85;;;2.60;;
7104;SDS011;3594;42.152;24.714;2023-04-03T08:24:27;3.45;;;2.30;;
7104;SDS011;3594;42.152;24.714;2023-04-03T08:26:53;3.70;;;2.40;;
7104;SDS011;3594;42.152;24.714;2023-04-03T08:29:18;2.45;;;2.25;;
7104;SDS011;3594;42.152;24.714;2023-04-03T08:31:44;6.35;;;2.65;;
7104;SDS011;3594;42.152;24.714;2023-04-03T08:34:11;2.67;;;2.00;;
7104;SDS011;3594;42.152;24.714;2023-04-03T08:36:36;3.35;;;2.35;;
7104;SDS011;3594;42.152;24.714;2023-04-03T08:39:02;4.68;;;2.20;;
7104;SDS011;3594;42.152;24.714;2023-04-03T08:41:32;5.18;;;2.42;;
7104;SDS011;3594;42.152;24.714;2023-04-03T08:49:45;3.45;;;2.72;;
7104;SDS011;3594;42.152;24.714;2023-04-03T08:52:20;4.82;;;3.40;;
7104;SDS011;3594;42.152;24.714;2023-04-03T08:55:04;4.90;;;3.50;;
7104;SDS011;3594;42.152;24.714;2023-04-03T08:57:33;7.57;;;4.15;;
7104;SDS011;3594;42.152;24.714;2023-04-03T09:00:05;12.52;;;4.95;;
7104;SDS011;3594;42.152;24.714;2023-04-03T09:05:11;8.95;;;4.65;;
7104;SDS011;3594;42.152;24.714;2023-04-03T09:07:55;7.47;;;4.20;;
7104;SDS011;3594;42.152;24.714;2023-04-03T09:10:28;9.65;;;3.55;;
7104;SDS011;3594;42.152;24.714;2023-04-03T09:13:01;5.07;;;3.00;;
7104;SDS011;3594;42.152;24.714;2023-04-03T09:15:32;7.15;;;3.33;;
7104;SDS011;3594;42.152;24.714;2023-04-03T09:18:00;7.03;;;3.35;;
7104;SDS011;3594;42.152;24.714;2023-04-03T09:23:03;4.78;;;3.25;;
7104;SDS011;3594;42.152;24.714;2023-04-03T09:25:38;5.05;;;2.70;;
7104;SDS011;3594;42.152;24.714;2023-04-03T09:28:04;3.55;;;2.58;;
7104;SDS011;3594;42.152;24.714;2023-04-03T09:30:35;4.75;;;2.60;;
7104;SDS011;3594;42.152;24.714;2023-04-03T09:33:00;2.92;;;2.28;;
7104;SDS011;3594;42.152;24.714;2023-04-03T09:35:27;5.35;;;2.70;;
7104;SDS011;3594;42.152;24.714;2023-04-03T09:38:00;5.07;;;2.83;;
7104;SDS011;3594;42.152;24.714;2023-04-03T09:41:23;4.90;;;2.92;;
7104;SDS011;3594;42.152;24.714;2023-04-03T09:43:38;3.50;;;2.42;;
7104;SDS011;3594;42.152;24.714;2023-04-03T09:49:00;6.85;;;3.08;;
7104;SDS011;3594;42.152;24.714;2023-04-03T09:51:28;5.88;;;3.13;;
7104;SDS011;3594;42.152;24.714;2023-04-03T09:53:56;4.93;;;2.78;;
7104;SDS011;3594;42.152;24.714;2023-04-03T09:56:28;2.70;;;2.13;;
7104;SDS011;3594;42.152;24.714;2023-04-03T10:01:27;2.85;;;1.95;;
7104;SDS011;3594;42.152;24.714;2023-04-03T10:04:05;2.33;;;2.03;;
7104;SDS011;3594;42.152;24.714;2023-04-03T10:06:43;1.98;;;1.80;;
7104;SDS011;3594;42.152;24.714;2023-04-03T10:12:06;3.13;;;2.38;;
7104;SDS011;3594;42.152;24.714;2023-04-03T10:14:40;5.47;;;2.17;;
7104;SDS011;3594;42.152;24.714;2023-04-03T10:19:53;4.30;;;2.75;;
7104;SDS011;3594;42.152;24.714;2023-04-03T10:28:35;2.30;;;2.10;;
7104;SDS011;3594;42.152;24.714;2023-04-03T10:31:25;3.00;;;1.90;;
7104;SDS011;3594;42.152;24.714;2023-04-03T10:36:51;2.63;;;2.00;;
7104;SDS011;3594;42.152;24.714;2023-04-03T10:39:54;3.55;;;2.30;;
7104;SDS011;3594;42.152;24.714;2023-04-03T10:52:49;4.90;;;2.72;;
7104;SDS011;3594;42.152;24.714;2023-04-03T10:55:33;3.78;;;2.45;;
7104;SDS011;3594;42.152;24.714;2023-04-03T10:58:06;2.53;;;2.33;;
7104;SDS011;3594;42.152;24.714;2023-04-03T11:00:45;3.28;;;2.40;;
7104;SDS011;3594;42.152;24.714;2023-04-03T11:03:15;3.58;;;2.20;;
7104;SDS011;3594;42.152;24.714;2023-04-03T11:05:51;6.35;;;2.85;;
7104;SDS011;3594;42.152;24.714;2023-04-03T11:10:56;3.55;;;2.63;;
7104;SDS011;3594;42.152;24.714;2023-04-03T11:13:26;4.63;;;3.10;;
7104;SDS011;3594;42.152;24.714;2023-04-03T11:15:53;4.05;;;2.67;;
7104;SDS011;3594;42.152;24.714;2023-04-03T11:18:23;6.22;;;2.70;;
7104;SDS011;3594;42.152;24.714;2023-04-03T11:21:07;6.00;;;2.55;;
7104;SDS011;3594;42.152;24.714;2023-04-03T11:23:40;4.50;;;2.72;;
7104;SDS011;3594;42.152;24.714;2023-04-03T11:26:16;3.70;;;2.90;;
7104;SDS011;3594;42.152;24.714;2023-04-03T11:28:42;3.45;;;2.60;;
7104;SDS011;3594;42.152;24.714;2023-04-03T11:41:53;4.28;;;3.33;;
7104;SDS011;3594;42.152;24.714;2023-04-03T11:44:37;3.50;;;3.03;;
7104;SDS011;3594;42.152;24.714;2023-04-03T11:47:07;3.80;;;2.90;;
7104;SDS011;3594;42.152;24.714;2023-04-03T11:49:51;3.42;;;2.67;;
7104;SDS011;3594;42.152;24.714;2023-04-03T12:13:34;5.53;;;3.83;;
7104;SDS011;3594;42.152;24.714;2023-04-03T12:16:05;7.40;;;4.22;;
7104;SDS011;3594;42.152;24.714;2023-04-03T12:21:17;5.20;;;3.38;;
7104;SDS011;3594;42.152;24.714;2023-04-03T12:26:50;6.38;;;4.18;;
7104;SDS011;3594;42.152;24.714;2023-04-03T12:45:43;5.45;;;4.10;;
7104;SDS011;3594;42.152;24.714;2023-04-03T12:48:14;6.78;;;4.07;;
7104;SDS011;3594;42.152;24.714;2023-04-03T12:50:41;6.63;;;4.40;;
7104;SDS011;3594;42.152;24.714;2023-04-03T12:53:14;10.40;;;4.55;;
7104;SDS011;3594;42.152;24.714;2023-04-03T12:55:45;8.38;;;4.35;;
7104;SDS011;3594;42.152;24.714;2023-04-03T12:58:14;5.20;;;3.88;;
7104;SDS011;3594;42.152;24.714;2023-04-03T13:01:03;6.80;;;4.43;;
7104;SDS011;3594;42.152;24.714;2023-04-03T13:03:37;8.38;;;4.57;;
7104;SDS011;3594;42.152;24.714;2023-04-03T13:06:06;9.03;;;5.40;;
7104;SDS011;3594;42.152;24.714;2023-04-03T13:08:31;6.25;;;4.20;;
7104;SDS011;3594;42.152;24.714;2023-04-03T13:10:59;7.47;;;4.72;;
7104;SDS011;3594;42.152;24.714;2023-04-03T13:13:30;8.35;;;4.80;;
7104;SDS011;3594;42.152;24.714;2023-04-03T13:15:56;8.80;;;5.83;;
7104;SDS011;3594;42.152;24.714;2023-04-03T13:18:23;13.40;;;7.37;;
7104;SDS011;3594;42.152;24.714;2023-04-03T13:20:51;13.70;;;7.23;;
7104;SDS011;3594;42.152;24.714;2023-04-03T13:23:19;11.93;;;6.57;;
7104;SDS011;3594;42.152;24.714;2023-04-03T13:25:48;9.93;;;5.23;;
7104;SDS011;3594;42.152;24.714;2023-04-03T13:28:16;7.87;;;5.57;;
7104;SDS011;3594;42.152;24.714;2023-04-03T13:31:45;8.27;;;5.50;;
7104;SDS011;3594;42.152;24.714;2023-04-03T13:33:56;11.53;;;5.40;;
7104;SDS011;3594;42.152;24.714;2023-04-03T13:36:23;9.00;;;5.43;;
7104;SDS011;3594;42.152;24.714;2023-04-03T13:39:04;9.40;;;5.93;;
7104;SDS011;3594;42.152;24.714;2023-04-03T13:41:39;10.03;;;6.10;;
7104;SDS011;3594;42.152;24.714;2023-04-03T13:46:51;8.80;;;6.00;;
7104;SDS011;3594;42.152;24.714;2023-04-03T13:51:53;9.47;;;6.60;;
7104;SDS011;3594;42.152;24.714;2023-04-03T13:54:21;13.87;;;7.07;;
7104;SDS011;3594;42.152;24.714;2023-04-03T13:56:54;11.93;;;7.43;;
7104;SDS011;3594;42.152;24.714;2023-04-03T13:59:23;13.97;;;7.93;;
7104;SDS011;3594;42.152;24.714;2023-04-03T14:04:31;14.30;;;8.60;;
7104;SDS011;3594;42.152;24.714;2023-04-03T14:07:09;14.77;;;8.57;;
7104;SDS011;3594;42.152;24.714;2023-04-03T14:09:39;14.30;;;8.87;;
7104;SDS011;3594;42.152;24.714;2023-04-03T14:12:07;14.13;;;9.10;;
7104;SDS011;3594;42.152;24.714;2023-04-03T14:14:37;12.57;;;8.47;;
7104;SDS011;3594;42.152;24.714;2023-04-03T14:17:09;15.80;;;8.43;;
7104;SDS011;3594;42.152;24.714;2023-04-03T14:19:39;15.67;;;8.67;;
7104;SDS011;3594;42.152;24.714;2023-04-03T14:22:14;12.97;;;8.00;;
7104;SDS011;3594;42.152;24.714;2023-04-03T14:25:05;14.00;;;8.23;;
7104;SDS011;3594;42.152;24.714;2023-04-03T14:27:38;16.70;;;8.70;;
7104;SDS011;3594;42.152;24.714;2023-04-03T14:30:08;15.17;;;7.83;;
7104;SDS011;3594;42.152;24.714;2023-04-03T14:32:38;14.15;;;7.82;;
7104;SDS011;3594;42.152;24.714;2023-04-03T14:35:04;11.87;;;7.10;;
7104;SDS011;3594;42.152;24.714;2023-04-03T14:37:30;10.93;;;7.17;;
7104;SDS011;3594;42.152;24.714;2023-04-03T14:39:58;9.23;;;6.20;;
7104;SDS011;3594;42.152;24.714;2023-04-03T14:42:27;9.47;;;6.03;;
7104;SDS011;3594;42.152;24.714;2023-04-03T14:44:56;13.67;;;7.27;;
7104;SDS011;3594;42.152;24.714;2023-04-03T14:47:26;11.07;;;6.37;;
7104;SDS011;3594;42.152;24.714;2023-04-03T14:49:54;13.10;;;7.23;;
7104;SDS011;3594;42.152;24.714;2023-04-03T14:52:25;13.53;;;7.37;;
7104;SDS011;3594;42.152;24.714;2023-04-03T14:54:53;12.63;;;6.47;;
7104;SDS011;3594;42.152;24.714;2023-04-03T14:57:19;13.97;;;6.93;;
7104;SDS011;3594;42.152;24.714;2023-04-03T14:59:49;9.83;;;6.03;;
7104;SDS011;3594;42.152;24.714;2023-04-03T15:04:51;11.63;;;7.10;;
7104;SDS011;3594;42.152;24.714;2023-04-03T15:07:17;11.53;;;7.67;;
7104;SDS011;3594;42.152;24.714;2023-04-03T15:09:42;14.13;;;7.33;;
7104;SDS011;3594;42.152;24.714;2023-04-03T15:12:08;13.53;;;7.73;;
7104;SDS011;3594;42.152;24.714;2023-04-03T15:14:35;14.10;;;7.10;;
7104;SDS011;3594;42.152;24.714;2023-04-03T15:17:00;13.40;;;7.37;;
7104;SDS011;3594;42.152;24.714;2023-04-03T15:19:27;13.47;;;8.53;;
7104;SDS011;3594;42.152;24.714;2023-04-03T15:21:52;12.37;;;7.53;;
7104;SDS011;3594;42.152;24.714;2023-04-03T15:24:17;19.33;;;7.27;;
7104;SDS011;3594;42.152;24.714;2023-04-03T15:26:43;13.77;;;8.07;;
7104;SDS011;3594;42.152;24.714;2023-04-03T15:29:09;12.73;;;8.37;;
7104;SDS011;3594;42.152;24.714;2023-04-03T15:31:35;16.63;;;8.47;;
7104;SDS011;3594;42.152;24.714;2023-04-03T15:34:01;14.43;;;8.40;;
7104;SDS011;3594;42.152;24.714;2023-04-03T15:36:28;17.13;;;8.73;;
7104;SDS011;3594;42.152;24.714;2023-04-03T15:38:54;15.00;;;8.47;;
7104;SDS011;3594;42.152;24.714;2023-04-03T15:41:19;15.23;;;8.00;;
7104;SDS011;3594;42.152;24.714;2023-04-03T15:43:45;12.87;;;7.70;;
7104;SDS011;3594;42.152;24.714;2023-04-03T15:46:11;13.33;;;7.90;;
7104;SDS011;3594;42.152;24.714;2023-04-03T15:48:38;11.53;;;7.00;;
7104;SDS011;3594;42.152;24.714;2023-04-03T15:51:04;12.83;;;6.27;;
7104;SDS011;3594;42.152;24.714;2023-04-03T15:53:31;8.20;;;5.33;;
7104;SDS011;3594;42.152;24.714;2023-04-03T15:55:56;12.57;;;5.17;;
7104;SDS011;3594;42.152;24.714;2023-04-03T15:58:22;9.60;;;5.37;;
7104;SDS011;3594;42.152;24.714;2023-04-03T16:00:47;11.20;;;5.27;;
7104;SDS011;3594;42.152;24.714;2023-04-03T16:03:17;10.73;;;5.97;;
7104;SDS011;3594;42.152;24.714;2023-04-03T16:05:44;14.03;;;6.67;;
7104;SDS011;3594;42.152;24.714;2023-04-03T16:08:10;11.27;;;5.73;;
7104;SDS011;3594;42.152;24.714;2023-04-03T16:10:37;8.33;;;5.53;;
7104;SDS011;3594;42.152;24.714;2023-04-03T16:13:02;10.40;;;5.80;;
7104;SDS011;3594;42.152;24.714;2023-04-03T16:15:29;9.97;;;5.60;;
7104;SDS011;3594;42.152;24.714;2023-04-03T16:17:55;17.20;;;5.30;;
7104;SDS011;3594;42.152;24.714;2023-04-03T16:20:23;9.27;;;4.77;;
7104;SDS011;3594;42.152;24.714;2023-04-03T16:22:48;12.77;;;6.20;;
7104;SDS011;3594;42.152;24.714;2023-04-03T16:25:14;12.73;;;5.30;;
7104;SDS011;3594;42.152;24.714;2023-04-03T16:27:39;12.53;;;5.50;;
7104;SDS011;3594;42.152;24.714;2023-04-03T16:30:05;10.53;;;6.00;;
7104;SDS011;3594;42.152;24.714;2023-04-03T16:32:32;12.17;;;5.90;;
7104;SDS011;3594;42.152;24.714;2023-04-03T16:34:58;9.23;;;4.93;;
7104;SDS011;3594;42.152;24.714;2023-04-03T16:37:24;11.70;;;4.53;;
7104;SDS011;3594;42.152;24.714;2023-04-03T16:39:50;9.67;;;5.37;;
7104;SDS011;3594;42.152;24.714;2023-04-03T16:42:15;10.40;;;5.10;;
7104;SDS011;3594;42.152;24.714;2023-04-03T16:44:41;8.93;;;4.83;;
7104;SDS011;3594;42.152;24.714;2023-04-03T16:47:07;14.97;;;5.67;;
7104;SDS011;3594;42.152;24.714;2023-04-03T16:49:33;8.30;;;4.80;;
7104;SDS011;3594;42.152;24.714;2023-04-03T16:52:00;11.63;;;5.27;;
7104;SDS011;3594;42.152;24.714;2023-04-03T16:54:29;10.17;;;5.80;;
7104;SDS011;3594;42.152;24.714;2023-04-03T16:56:55;12.33;;;5.97;;
7104;SDS011;3594;42.152;24.714;2023-04-03T16:59:20;10.93;;;5.93;;
7104;SDS011;3594;42.152;24.714;2023-04-03T17:01:46;9.13;;;5.00;;
7104;SDS011;3594;42.152;24.714;2023-04-03T17:04:11;9.13;;;5.03;;
7104;SDS011;3594;42.152;24.714;2023-04-03T17:06:38;8.03;;;4.80;;